sensor_id;sensor_type;location;lat;lon;timestamp;temperature;humidity
210;DHT22;90;48.810;9.120;2024-03-02T00:00:57;8.10;87.30
210;DHT22;90;48.810;9.120;2024-03-02T00:03:24;8.10;87.20
210;DHT22;90;48.810;9.120;2024-03-02T00:05:51;8.10;87.40
210;DHT22;90;48.810;9.120;2024-03-02T00:08:24;8.10;87.50
210;DHT22;90;48.810;9.120;2024-03-02T00:10:52;8.20;87.30
210;DHT22;90;48.810;9.120;2024-03-02T00:13:23;8.20;87.00
210;DHT22;90;48.810;9.120;2024-03-02T00:15:52;8.10;87.20
210;DHT22;90;48.810;9.120;2024-03-02T00:18:21;8.10;87.00
210;DHT22;90;48.810;9.120;2024-03-02T00:20:48;8.10;87.30
210;DHT22;90;48.810;9.120;2024-03-02T00:23:16;8.00;87.50
210;DHT22;90;48.810;9.120;2024-03-02T00:25:46;8.00;87.50
210;DHT22;90;48.810;9.120;2024-03-02T00:28:16;8.00;87.60
210;DHT22;90;48.810;9.120;2024-03-02T00:30:58;8.00;87.60
210;DHT22;90;48.810;9.120;2024-03-02T00:33:28;7.90;87.90
210;DHT22;90;48.810;9.120;2024-03-02T00:35:57;7.90;87.70
210;DHT22;90;48.810;9.120;2024-03-02T00:38:25;7.90;88.00
210;DHT22;90;48.810;9.120;2024-03-02T00:40:54;7.90;87.80
210;DHT22;90;48.810;9.120;2024-03-02T00:43:41;7.80;88.10
210;DHT22;90;48.810;9.120;2024-03-02T00:46:10;7.90;88.10
210;DHT22;90;48.810;9.120;2024-03-02T00:48:37;7.90;88.00
210;DHT22;90;48.810;9.120;2024-03-02T00:51:04;8.00;87.60
210;DHT22;90;48.810;9.120;2024-03-02T00:53:31;7.90;87.40
210;DHT22;90;48.810;9.120;2024-03-02T00:56:01;7.90;87.30
210;DHT22;90;48.810;9.120;2024-03-02T00:58:27;7.90;87.10
210;DHT22;90;48.810;9.120;2024-03-02T01:00:54;7.80;87.50
210;DHT22;90;48.810;9.120;2024-03-02T01:03:21;7.80;88.00
210;DHT22;90;48.810;9.120;2024-03-02T01:05:48;7.80;87.70
210;DHT22;90;48.810;9.120;2024-03-02T01:08:14;7.80;87.60
210;DHT22;90;48.810;9.120;2024-03-02T01:10:41;7.90;87.60
210;DHT22;90;48.810;9.120;2024-03-02T01:13:09;7.80;87.30
210;DHT22;90;48.810;9.120;2024-03-02T01:15:36;7.80;87.50
210;DHT22;90;48.810;9.120;2024-03-02T01:18:03;7.80;87.50
210;DHT22;90;48.810;9.120;2024-03-02T01:20:31;7.80;87.50
210;DHT22;90;48.810;9.120;2024-03-02T01:22:57;7.90;87.20
210;DHT22;90;48.810;9.120;2024-03-02T01:25:24;7.90;87.00
210;DHT22;90;48.810;9.120;2024-03-02T01:27:51;7.80;87.00
210;DHT22;90;48.810;9.120;2024-03-02T01:30:19;7.80;87.10
210;DHT22;90;48.810;9.120;2024-03-02T01:32:46;7.80;86.90
210;DHT22;90;48.810;9.120;2024-03-02T01:35:13;7.70;87.20
210;DHT22;90;48.810;9.120;2024-03-02T01:37:41;7.70;86.90
210;DHT22;90;48.810;9.120;2024-03-02T01:40:08;7.70;86.80
210;DHT22;90;48.810;9.120;2024-03-02T01:42:36;7.50;86.70
210;DHT22;90;48.810;9.120;2024-03-02T01:45:04;7.50;87.20
210;DHT22;90;48.810;9.120;2024-03-02T01:47:32;7.40;86.80
210;DHT22;90;48.810;9.120;2024-03-02T01:49:59;7.30;86.80
210;DHT22;90;48.810;9.120;2024-03-02T01:52:27;7.20;87.10
210;DHT22;90;48.810;9.120;2024-03-02T01:54:53;7.10;87.40
210;DHT22;90;48.810;9.120;2024-03-02T01:57:20;7.10;87.60
210;DHT22;90;48.810;9.120;2024-03-02T01:59:47;7.10;87.70
210;DHT22;90;48.810;9.120;2024-03-02T02:02:14;7.10;88.00
210;DHT22;90;48.810;9.120;2024-03-02T02:04:42;7.10;87.70
210;DHT22;90;48.810;9.120;2024-03-02T02:07:10;7.10;88.20
210;DHT22;90;48.810;9.120;2024-03-02T02:09:37;7.20;87.70
210;DHT22;90;48.810;9.120;2024-03-02T02:12:04;7.20;87.60
210;DHT22;90;48.810;9.120;2024-03-02T02:14:32;7.20;87.70
210;DHT22;90;48.810;9.120;2024-03-02T02:16:59;7.10;87.70
210;DHT22;90;48.810;9.120;2024-03-02T02:19:25;7.10;88.20
210;DHT22;90;48.810;9.120;2024-03-02T02:21:54;7.10;87.90
210;DHT22;90;48.810;9.120;2024-03-02T02:24:20;7.10;88.10
210;DHT22;90;48.810;9.120;2024-03-02T02:26:47;7.00;88.60
210;DHT22;90;48.810;9.120;2024-03-02T02:29:14;7.00;88.90
210;DHT22;90;48.810;9.120;2024-03-02T02:31:41;7.00;89.10
210;DHT22;90;48.810;9.120;2024-03-02T02:34:08;6.90;89.20
210;DHT22;90;48.810;9.120;2024-03-02T02:36:38;6.90;89.50
210;DHT22;90;48.810;9.120;2024-03-02T02:39:09;6.90;89.60
210;DHT22;90;48.810;9.120;2024-03-02T02:41:37;6.90;89.80
210;DHT22;90;48.810;9.120;2024-03-02T02:44:04;7.00;89.40
210;DHT22;90;48.810;9.120;2024-03-02T02:46:31;7.00;89.00
210;DHT22;90;48.810;9.120;2024-03-02T02:48:58;7.00;89.20
210;DHT22;90;48.810;9.120;2024-03-02T02:51:25;7.10;88.80
210;DHT22;90;48.810;9.120;2024-03-02T02:53:52;7.10;88.60
210;DHT22;90;48.810;9.120;2024-03-02T02:56:20;7.10;89.00
210;DHT22;90;48.810;9.120;2024-03-02T02:58:47;7.10;87.70
210;DHT22;90;48.810;9.120;2024-03-02T03:01:14;7.00;87.80
210;DHT22;90;48.810;9.120;2024-03-02T03:03:42;7.00;88.00
210;DHT22;90;48.810;9.120;2024-03-02T03:06:09;6.90;88.40
210;DHT22;90;48.810;9.120;2024-03-02T03:08:35;6.90;88.60
210;DHT22;90;48.810;9.120;2024-03-02T03:11:03;6.90;89.00
210;DHT22;90;48.810;9.120;2024-03-02T03:13:31;6.90;88.70
210;DHT22;90;48.810;9.120;2024-03-02T03:15:58;6.70;89.00
210;DHT22;90;48.810;9.120;2024-03-02T03:18:25;6.70;89.50
210;DHT22;90;48.810;9.120;2024-03-02T03:20:52;6.70;89.60
210;DHT22;90;48.810;9.120;2024-03-02T03:23:18;6.70;89.50
210;DHT22;90;48.810;9.120;2024-03-02T03:25:46;6.80;89.80
210;DHT22;90;48.810;9.120;2024-03-02T03:28:13;6.80;89.60
210;DHT22;90;48.810;9.120;2024-03-02T03:30:40;6.80;89.60
210;DHT22;90;48.810;9.120;2024-03-02T03:33:06;6.70;89.50
210;DHT22;90;48.810;9.120;2024-03-02T03:35:33;6.60;89.80
210;DHT22;90;48.810;9.120;2024-03-02T03:38:00;6.60;90.90
210;DHT22;90;48.810;9.120;2024-03-02T03:40:27;6.70;90.60
210;DHT22;90;48.810;9.120;2024-03-02T03:42:54;6.70;90.20
210;DHT22;90;48.810;9.120;2024-03-02T03:45:22;6.80;90.10
210;DHT22;90;48.810;9.120;2024-03-02T03:47:52;6.90;89.40
210;DHT22;90;48.810;9.120;2024-03-02T03:50:19;6.90;88.70
210;DHT22;90;48.810;9.120;2024-03-02T03:52:45;6.90;88.80
210;DHT22;90;48.810;9.120;2024-03-02T03:55:12;6.80;89.10
210;DHT22;90;48.810;9.120;2024-03-02T03:57:39;6.80;89.30
210;DHT22;90;48.810;9.120;2024-03-02T04:00:07;6.90;89.10
210;DHT22;90;48.810;9.120;2024-03-02T04:02:35;6.90;89.00
210;DHT22;90;48.810;9.120;2024-03-02T04:05:04;6.90;88.60
210;DHT22;90;48.810;9.120;2024-03-02T04:07:35;6.80;88.60
210;DHT22;90;48.810;9.120;2024-03-02T04:10:07;6.80;88.70
210;DHT22;90;48.810;9.120;2024-03-02T04:12:34;6.80;88.50
210;DHT22;90;48.810;9.120;2024-03-02T04:15:01;6.80;88.70
210;DHT22;90;48.810;9.120;2024-03-02T04:17:29;6.70;88.80
210;DHT22;90;48.810;9.120;2024-03-02T04:19:57;6.60;89.30
210;DHT22;90;48.810;9.120;2024-03-02T04:22:25;6.70;89.40
210;DHT22;90;48.810;9.120;2024-03-02T04:24:53;6.70;89.20
210;DHT22;90;48.810;9.120;2024-03-02T04:27:19;6.80;89.50
210;DHT22;90;48.810;9.120;2024-03-02T04:29:46;6.80;89.10
210;DHT22;90;48.810;9.120;2024-03-02T04:32:13;6.80;88.80
210;DHT22;90;48.810;9.120;2024-03-02T04:34:39;6.90;89.40
210;DHT22;90;48.810;9.120;2024-03-02T04:37:06;6.90;88.70
210;DHT22;90;48.810;9.120;2024-03-02T04:39:35;7.00;88.70
210;DHT22;90;48.810;9.120;2024-03-02T04:42:02;7.00;88.40
210;DHT22;90;48.810;9.120;2024-03-02T04:44:29;7.00;88.20
210;DHT22;90;48.810;9.120;2024-03-02T04:46:56;7.00;88.30
210;DHT22;90;48.810;9.120;2024-03-02T04:49:23;7.10;87.90
210;DHT22;90;48.810;9.120;2024-03-02T04:51:50;7.00;88.10
210;DHT22;90;48.810;9.120;2024-03-02T04:54:16;7.00;88.10
210;DHT22;90;48.810;9.120;2024-03-02T04:56:44;7.00;88.00
210;DHT22;90;48.810;9.120;2024-03-02T04:59:15;6.90;88.30
210;DHT22;90;48.810;9.120;2024-03-02T05:01:41;6.80;88.60
210;DHT22;90;48.810;9.120;2024-03-02T05:04:08;6.90;88.60
210;DHT22;90;48.810;9.120;2024-03-02T05:06:37;6.90;88.40
210;DHT22;90;48.810;9.120;2024-03-02T05:09:03;7.00;88.00
210;DHT22;90;48.810;9.120;2024-03-02T05:11:30;7.00;87.90
210;DHT22;90;48.810;9.120;2024-03-02T05:14:26;6.90;87.60
210;DHT22;90;48.810;9.120;2024-03-02T05:16:52;6.90;87.70
210;DHT22;90;48.810;9.120;2024-03-02T05:19:19;6.90;87.70
210;DHT22;90;48.810;9.120;2024-03-02T05:21:46;6.80;87.80
210;DHT22;90;48.810;9.120;2024-03-02T05:24:12;6.80;88.40
210;DHT22;90;48.810;9.120;2024-03-02T05:26:39;6.80;87.80
210;DHT22;90;48.810;9.120;2024-03-02T05:29:06;6.80;88.20
210;DHT22;90;48.810;9.120;2024-03-02T05:31:34;6.70;88.60
210;DHT22;90;48.810;9.120;2024-03-02T05:34:00;6.70;88.90
210;DHT22;90;48.810;9.120;2024-03-02T05:36:28;6.60;89.00
210;DHT22;90;48.810;9.120;2024-03-02T05:38:54;6.60;89.10
210;DHT22;90;48.810;9.120;2024-03-02T05:41:21;6.60;88.80
210;DHT22;90;48.810;9.120;2024-03-02T05:43:48;6.60;89.20
210;DHT22;90;48.810;9.120;2024-03-02T05:46:15;6.50;89.70
210;DHT22;90;48.810;9.120;2024-03-02T05:48:43;6.60;89.60
210;DHT22;90;48.810;9.120;2024-03-02T05:51:09;6.60;89.30
210;DHT22;90;48.810;9.120;2024-03-02T05:53:36;6.60;88.90
210;DHT22;90;48.810;9.120;2024-03-02T05:56:04;6.70;88.60
210;DHT22;90;48.810;9.120;2024-03-02T05:58:31;6.70;88.30
210;DHT22;90;48.810;9.120;2024-03-02T06:01:08;6.70;87.80
210;DHT22;90;48.810;9.120;2024-03-02T06:03:35;6.60;87.40
210;DHT22;90;48.810;9.120;2024-03-02T06:06:04;6.60;87.30
210;DHT22;90;48.810;9.120;2024-03-02T06:08:30;6.40;87.60
210;DHT22;90;48.810;9.120;2024-03-02T06:10:57;6.40;87.80
210;DHT22;90;48.810;9.120;2024-03-02T06:13:24;6.40;88.80
210;DHT22;90;48.810;9.120;2024-03-02T06:15:52;6.50;88.30
210;DHT22;90;48.810;9.120;2024-03-02T06:18:18;6.40;88.80
210;DHT22;90;48.810;9.120;2024-03-02T06:20:46;6.40;89.00
210;DHT22;90;48.810;9.120;2024-03-02T06:23:14;6.50;88.90
210;DHT22;90;48.810;9.120;2024-03-02T06:25:41;6.50;88.80
210;DHT22;90;48.810;9.120;2024-03-02T06:28:08;6.50;88.90
210;DHT22;90;48.810;9.120;2024-03-02T06:30:34;6.60;89.10
210;DHT22;90;48.810;9.120;2024-03-02T06:33:01;6.60;88.80
210;DHT22;90;48.810;9.120;2024-03-02T06:35:29;6.60;88.90
210;DHT22;90;48.810;9.120;2024-03-02T06:37:55;6.70;88.80
210;DHT22;90;48.810;9.120;2024-03-02T06:40:23;6.70;88.60
210;DHT22;90;48.810;9.120;2024-03-02T06:42:50;6.70;88.60
210;DHT22;90;48.810;9.120;2024-03-02T06:45:17;6.70;88.40
210;DHT22;90;48.810;9.120;2024-03-02T06:47:44;6.70;88.70
210;DHT22;90;48.810;9.120;2024-03-02T06:50:11;6.70;88.60
210;DHT22;90;48.810;9.120;2024-03-02T06:52:38;6.80;88.50
210;DHT22;90;48.810;9.120;2024-03-02T06:55:06;6.80;88.50
210;DHT22;90;48.810;9.120;2024-03-02T06:57:34;6.80;88.70
210;DHT22;90;48.810;9.120;2024-03-02T07:00:00;6.80;89.30
210;DHT22;90;48.810;9.120;2024-03-02T07:02:30;6.90;89.20
210;DHT22;90;48.810;9.120;2024-03-02T07:04:57;6.90;89.20
210;DHT22;90;48.810;9.120;2024-03-02T07:07:24;7.10;88.80
210;DHT22;90;48.810;9.120;2024-03-02T07:09:51;7.10;88.60
210;DHT22;90;48.810;9.120;2024-03-02T07:12:18;7.10;88.70
210;DHT22;90;48.810;9.120;2024-03-02T07:14:46;7.20;88.60
210;DHT22;90;48.810;9.120;2024-03-02T07:17:36;7.20;88.10
210;DHT22;90;48.810;9.120;2024-03-02T07:20:04;7.20;88.10
210;DHT22;90;48.810;9.120;2024-03-02T07:22:32;7.20;87.80
210;DHT22;90;48.810;9.120;2024-03-02T07:24:58;7.30;87.70
210;DHT22;90;48.810;9.120;2024-03-02T07:27:28;7.40;87.40
210;DHT22;90;48.810;9.120;2024-03-02T07:29:56;7.40;87.30
210;DHT22;90;48.810;9.120;2024-03-02T07:32:22;7.50;87.20
210;DHT22;90;48.810;9.120;2024-03-02T07:34:49;7.50;87.00
210;DHT22;90;48.810;9.120;2024-03-02T07:37:17;7.50;86.80
210;DHT22;90;48.810;9.120;2024-03-02T07:39:44;7.50;86.80
210;DHT22;90;48.810;9.120;2024-03-02T07:42:11;7.50;86.90
210;DHT22;90;48.810;9.120;2024-03-02T07:44:37;7.50;87.00
210;DHT22;90;48.810;9.120;2024-03-02T07:47:06;7.50;86.70
210;DHT22;90;48.810;9.120;2024-03-02T07:49:33;7.50;86.50
210;DHT22;90;48.810;9.120;2024-03-02T07:52:00;7.60;86.60
210;DHT22;90;48.810;9.120;2024-03-02T07:54:27;7.90;89.60
210;DHT22;90;48.810;9.120;2024-03-02T07:56:53;7.90;87.40
210;DHT22;90;48.810;9.120;2024-03-02T07:59:21;7.90;86.00
210;DHT22;90;48.810;9.120;2024-03-02T08:01:49;7.80;85.70
210;DHT22;90;48.810;9.120;2024-03-02T08:04:17;7.80;85.40
210;DHT22;90;48.810;9.120;2024-03-02T08:06:45;7.80;85.40
210;DHT22;90;48.810;9.120;2024-03-02T08:09:12;7.80;85.40
210;DHT22;90;48.810;9.120;2024-03-02T08:11:39;7.80;85.30
210;DHT22;90;48.810;9.120;2024-03-02T08:14:06;7.80;85.00
210;DHT22;90;48.810;9.120;2024-03-02T08:16:32;7.80;85.10
210;DHT22;90;48.810;9.120;2024-03-02T08:18:59;7.80;84.80
210;DHT22;90;48.810;9.120;2024-03-02T08:21:27;7.80;84.70
210;DHT22;90;48.810;9.120;2024-03-02T08:23:56;7.90;84.60
210;DHT22;90;48.810;9.120;2024-03-02T08:26:23;7.90;84.50
210;DHT22;90;48.810;9.120;2024-03-02T08:28:50;7.90;84.10
210;DHT22;90;48.810;9.120;2024-03-02T08:31:16;8.00;84.00
210;DHT22;90;48.810;9.120;2024-03-02T08:33:43;8.10;84.20
210;DHT22;90;48.810;9.120;2024-03-02T08:36:10;8.20;83.30
210;DHT22;90;48.810;9.120;2024-03-02T08:38:38;8.20;83.20
210;DHT22;90;48.810;9.120;2024-03-02T08:41:05;8.40;83.30
210;DHT22;90;48.810;9.120;2024-03-02T08:43:32;8.40;82.00
210;DHT22;90;48.810;9.120;2024-03-02T08:45:59;8.40;81.70
210;DHT22;90;48.810;9.120;2024-03-02T08:48:26;8.50;81.50
210;DHT22;90;48.810;9.120;2024-03-02T08:50:53;8.50;81.50
210;DHT22;90;48.810;9.120;2024-03-02T08:53:20;8.60;81.40
210;DHT22;90;48.810;9.120;2024-03-02T08:55:48;8.70;81.30
210;DHT22;90;48.810;9.120;2024-03-02T08:58:15;9.00;81.30
210;DHT22;90;48.810;9.120;2024-03-02T09:00:42;9.00;79.90
210;DHT22;90;48.810;9.120;2024-03-02T09:03:09;9.00;79.40
210;DHT22;90;48.810;9.120;2024-03-02T09:05:35;9.10;79.70
210;DHT22;90;48.810;9.120;2024-03-02T09:08:03;9.20;79.70
210;DHT22;90;48.810;9.120;2024-03-02T09:10:30;9.30;78.70
210;DHT22;90;48.810;9.120;2024-03-02T09:12:58;9.20;78.70
210;DHT22;90;48.810;9.120;2024-03-02T09:15:25;9.30;79.00
210;DHT22;90;48.810;9.120;2024-03-02T09:17:52;9.40;78.70
210;DHT22;90;48.810;9.120;2024-03-02T09:20:19;9.50;78.50
210;DHT22;90;48.810;9.120;2024-03-02T09:22:46;9.60;77.40
210;DHT22;90;48.810;9.120;2024-03-02T09:25:14;9.60;76.00
210;DHT22;90;48.810;9.120;2024-03-02T09:27:41;9.70;75.80
210;DHT22;90;48.810;9.120;2024-03-02T09:30:10;9.70;75.40
210;DHT22;90;48.810;9.120;2024-03-02T09:32:39;9.80;74.60
210;DHT22;90;48.810;9.120;2024-03-02T09:35:06;9.90;74.70
210;DHT22;90;48.810;9.120;2024-03-02T09:37:34;10.00;75.10
210;DHT22;90;48.810;9.120;2024-03-02T09:40:01;10.20;74.50
210;DHT22;90;48.810;9.120;2024-03-02T09:42:28;10.30;73.70
210;DHT22;90;48.810;9.120;2024-03-02T09:44:55;10.40;73.80
210;DHT22;90;48.810;9.120;2024-03-02T09:47:24;10.50;74.10
210;DHT22;90;48.810;9.120;2024-03-02T09:49:51;10.60;73.60
210;DHT22;90;48.810;9.120;2024-03-02T09:52:19;10.70;72.80
210;DHT22;90;48.810;9.120;2024-03-02T09:54:47;10.80;73.30
210;DHT22;90;48.810;9.120;2024-03-02T09:57:14;10.90;71.60
210;DHT22;90;48.810;9.120;2024-03-02T09:59:41;10.90;71.80
210;DHT22;90;48.810;9.120;2024-03-02T10:02:08;10.90;70.70
210;DHT22;90;48.810;9.120;2024-03-02T10:04:36;11.10;70.80
210;DHT22;90;48.810;9.120;2024-03-02T10:07:13;11.10;70.70
210;DHT22;90;48.810;9.120;2024-03-02T10:09:40;11.20;70.30
210;DHT22;90;48.810;9.120;2024-03-02T10:12:09;11.30;69.90
210;DHT22;90;48.810;9.120;2024-03-02T10:14:36;11.40;69.50
210;DHT22;90;48.810;9.120;2024-03-02T10:17:05;11.50;68.90
210;DHT22;90;48.810;9.120;2024-03-02T10:19:32;11.70;68.90
210;DHT22;90;48.810;9.120;2024-03-02T10:22:02;11.80;68.50
210;DHT22;90;48.810;9.120;2024-03-02T10:24:36;11.90;68.30
210;DHT22;90;48.810;9.120;2024-03-02T10:27:10;12.00;68.70
210;DHT22;90;48.810;9.120;2024-03-02T10:29:38;12.10;67.00
210;DHT22;90;48.810;9.120;2024-03-02T10:32:06;12.40;68.30
210;DHT22;90;48.810;9.120;2024-03-02T10:34:35;12.30;67.10
210;DHT22;90;48.810;9.120;2024-03-02T10:37:05;12.40;65.60
210;DHT22;90;48.810;9.120;2024-03-02T10:39:34;12.40;66.90
210;DHT22;90;48.810;9.120;2024-03-02T10:42:02;12.40;66.70
210;DHT22;90;48.810;9.120;2024-03-02T10:44:31;12.70;78.10
210;DHT22;90;48.810;9.120;2024-03-02T10:47:00;13.20;69.80
210;DHT22;90;48.810;9.120;2024-03-02T10:49:29;13.20;65.30
210;DHT22;90;48.810;9.120;2024-03-02T10:51:57;13.20;64.30
210;DHT22;90;48.810;9.120;2024-03-02T10:54:25;13.10;64.40
210;DHT22;90;48.810;9.120;2024-03-02T10:56:56;13.40;73.40
210;DHT22;90;48.810;9.120;2024-03-02T10:59:27;14.30;78.80
210;DHT22;90;48.810;9.120;2024-03-02T11:01:56;14.90;67.80
210;DHT22;90;48.810;9.120;2024-03-02T11:04:24;14.70;61.60
210;DHT22;90;48.810;9.120;2024-03-02T11:06:52;14.60;61.70
210;DHT22;90;48.810;9.120;2024-03-02T11:09:27;14.30;61.30
210;DHT22;90;48.810;9.120;2024-03-02T11:12:00;14.10;62.50
210;DHT22;90;48.810;9.120;2024-03-02T11:14:30;13.90;63.20
210;DHT22;90;48.810;9.120;2024-03-02T11:16:59;13.70;61.80
210;DHT22;90;48.810;9.120;2024-03-02T11:19:27;13.70;63.00
210;DHT22;90;48.810;9.120;2024-03-02T11:21:54;13.60;62.50
210;DHT22;90;48.810;9.120;2024-03-02T11:24:32;13.50;63.20
210;DHT22;90;48.810;9.120;2024-03-02T11:26:59;13.50;63.80
210;DHT22;90;48.810;9.120;2024-03-02T11:29:43;13.50;62.90
210;DHT22;90;48.810;9.120;2024-03-02T11:32:15;13.50;63.80
210;DHT22;90;48.810;9.120;2024-03-02T11:34:44;13.50;64.30
210;DHT22;90;48.810;9.120;2024-03-02T11:37:12;13.40;64.60
210;DHT22;90;48.810;9.120;2024-03-02T11:39:40;13.50;63.50
210;DHT22;90;48.810;9.120;2024-03-02T11:42:07;13.50;64.00
210;DHT22;90;48.810;9.120;2024-03-02T11:44:35;13.60;63.40
210;DHT22;90;48.810;9.120;2024-03-02T11:47:06;13.70;63.80
210;DHT22;90;48.810;9.120;2024-03-02T11:49:40;13.70;62.50
210;DHT22;90;48.810;9.120;2024-03-02T11:52:09;13.70;62.40
210;DHT22;90;48.810;9.120;2024-03-02T11:54:37;13.70;62.50
210;DHT22;90;48.810;9.120;2024-03-02T11:57:07;13.80;63.70
210;DHT22;90;48.810;9.120;2024-03-02T11:59:34;13.80;62.80
210;DHT22;90;48.810;9.120;2024-03-02T12:02:02;13.90;62.10
210;DHT22;90;48.810;9.120;2024-03-02T12:04:29;14.00;61.20
210;DHT22;90;48.810;9.120;2024-03-02T12:06:58;14.10;61.00
210;DHT22;90;48.810;9.120;2024-03-02T12:09:26;14.20;60.20
210;DHT22;90;48.810;9.120;2024-03-02T12:12:08;14.30;60.90
210;DHT22;90;48.810;9.120;2024-03-02T12:14:36;14.40;59.50
210;DHT22;90;48.810;9.120;2024-03-02T12:17:04;14.40;57.40
210;DHT22;90;48.810;9.120;2024-03-02T12:19:32;14.50;58.10
210;DHT22;90;48.810;9.120;2024-03-02T12:22:00;14.50;57.90
210;DHT22;90;48.810;9.120;2024-03-02T12:24:28;14.40;57.10
210;DHT22;90;48.810;9.120;2024-03-02T12:26:55;14.60;57.70
210;DHT22;90;48.810;9.120;2024-03-02T12:29:24;14.80;57.70
210;DHT22;90;48.810;9.120;2024-03-02T12:31:52;14.90;57.20
210;DHT22;90;48.810;9.120;2024-03-02T12:34:19;14.90;56.60
210;DHT22;90;48.810;9.120;2024-03-02T12:36:46;15.00;56.70
210;DHT22;90;48.810;9.120;2024-03-02T12:39:15;15.10;56.60
210;DHT22;90;48.810;9.120;2024-03-02T12:41:42;15.20;55.40
210;DHT22;90;48.810;9.120;2024-03-02T12:44:09;15.40;55.70
210;DHT22;90;48.810;9.120;2024-03-02T12:46:37;15.50;55.30
210;DHT22;90;48.810;9.120;2024-03-02T12:49:09;15.40;54.50
210;DHT22;90;48.810;9.120;2024-03-02T12:51:38;15.50;55.00
210;DHT22;90;48.810;9.120;2024-03-02T12:54:06;15.50;54.80
210;DHT22;90;48.810;9.120;2024-03-02T12:56:34;15.50;54.40
210;DHT22;90;48.810;9.120;2024-03-02T12:59:03;15.50;54.80
210;DHT22;90;48.810;9.120;2024-03-02T13:01:30;15.60;55.00
210;DHT22;90;48.810;9.120;2024-03-02T13:04:00;15.60;54.40
210;DHT22;90;48.810;9.120;2024-03-02T13:06:27;16.00;70.50
210;DHT22;90;48.810;9.120;2024-03-02T13:08:54;16.60;66.20
210;DHT22;90;48.810;9.120;2024-03-02T13:11:23;17.10;66.70
210;DHT22;90;48.810;9.120;2024-03-02T13:13:50;17.40;63.40
210;DHT22;90;48.810;9.120;2024-03-02T13:16:18;17.60;62.30
210;DHT22;90;48.810;9.120;2024-03-02T13:18:45;17.90;59.30
210;DHT22;90;48.810;9.120;2024-03-02T13:21:13;18.00;58.30
210;DHT22;90;48.810;9.120;2024-03-02T13:23:40;18.10;54.70
210;DHT22;90;48.810;9.120;2024-03-02T13:26:07;18.10;54.40
210;DHT22;90;48.810;9.120;2024-03-02T13:28:36;18.20;56.00
210;DHT22;90;48.810;9.120;2024-03-02T13:31:03;18.40;55.90
210;DHT22;90;48.810;9.120;2024-03-02T13:33:30;18.40;53.20
210;DHT22;90;48.810;9.120;2024-03-02T13:35:58;18.50;54.40
210;DHT22;90;48.810;9.120;2024-03-02T13:38:26;18.70;53.00
210;DHT22;90;48.810;9.120;2024-03-02T13:40:53;18.60;51.20
210;DHT22;90;48.810;9.120;2024-03-02T13:43:19;18.50;52.90
210;DHT22;90;48.810;9.120;2024-03-02T13:45:46;18.60;51.70
210;DHT22;90;48.810;9.120;2024-03-02T13:48:13;18.80;51.40
210;DHT22;90;48.810;9.120;2024-03-02T13:50:40;18.90;51.30
210;DHT22;90;48.810;9.120;2024-03-02T13:53:07;18.80;50.70
210;DHT22;90;48.810;9.120;2024-03-02T13:55:36;18.90;51.60
210;DHT22;90;48.810;9.120;2024-03-02T13:58:03;19.00;51.20
210;DHT22;90;48.810;9.120;2024-03-02T14:00:30;19.20;50.70
210;DHT22;90;48.810;9.120;2024-03-02T14:02:57;19.30;50.30
210;DHT22;90;48.810;9.120;2024-03-02T14:05:24;19.30;47.60
210;DHT22;90;48.810;9.120;2024-03-02T14:07:51;19.00;46.60
210;DHT22;90;48.810;9.120;2024-03-02T14:10:18;18.50;47.20
210;DHT22;90;48.810;9.120;2024-03-02T14:12:49;18.40;49.00
210;DHT22;90;48.810;9.120;2024-03-02T14:15:15;18.20;48.50
210;DHT22;90;48.810;9.120;2024-03-02T14:17:42;18.20;48.20
210;DHT22;90;48.810;9.120;2024-03-02T14:20:10;18.00;48.40
210;DHT22;90;48.810;9.120;2024-03-02T14:22:38;17.90;48.30
210;DHT22;90;48.810;9.120;2024-03-02T14:25:06;17.70;48.30
210;DHT22;90;48.810;9.120;2024-03-02T14:27:32;17.50;51.60
210;DHT22;90;48.810;9.120;2024-03-02T14:30:02;17.50;49.20
210;DHT22;90;48.810;9.120;2024-03-02T14:32:30;17.40;49.10
210;DHT22;90;48.810;9.120;2024-03-02T14:34:57;17.40;49.00
210;DHT22;90;48.810;9.120;2024-03-02T14:37:24;17.40;48.50
210;DHT22;90;48.810;9.120;2024-03-02T14:39:51;17.40;48.60
210;DHT22;90;48.810;9.120;2024-03-02T14:42:17;17.40;47.90
210;DHT22;90;48.810;9.120;2024-03-02T14:44:44;17.50;48.00
210;DHT22;90;48.810;9.120;2024-03-02T14:47:12;17.50;46.90
210;DHT22;90;48.810;9.120;2024-03-02T14:49:39;17.40;47.10
210;DHT22;90;48.810;9.120;2024-03-02T14:52:07;17.40;48.10
210;DHT22;90;48.810;9.120;2024-03-02T14:54:35;17.30;48.00
210;DHT22;90;48.810;9.120;2024-03-02T14:57:01;17.40;48.40
210;DHT22;90;48.810;9.120;2024-03-02T14:59:29;17.50;47.50
210;DHT22;90;48.810;9.120;2024-03-02T15:01:56;17.60;47.70
210;DHT22;90;48.810;9.120;2024-03-02T15:04:24;17.70;48.10
210;DHT22;90;48.810;9.120;2024-03-02T15:06:50;17.80;46.90
210;DHT22;90;48.810;9.120;2024-03-02T15:09:17;18.00;46.50
210;DHT22;90;48.810;9.120;2024-03-02T15:11:45;18.10;45.90
210;DHT22;90;48.810;9.120;2024-03-02T15:14:12;18.20;46.20
210;DHT22;90;48.810;9.120;2024-03-02T15:16:39;18.20;45.70
210;DHT22;90;48.810;9.120;2024-03-02T15:19:06;18.10;45.60
210;DHT22;90;48.810;9.120;2024-03-02T15:21:34;18.00;46.10
210;DHT22;90;48.810;9.120;2024-03-02T15:24:00;17.90;46.40
210;DHT22;90;48.810;9.120;2024-03-02T15:26:27;17.70;46.60
210;DHT22;90;48.810;9.120;2024-03-02T15:28:54;17.40;46.60
210;DHT22;90;48.810;9.120;2024-03-02T15:31:23;17.10;46.80
210;DHT22;90;48.810;9.120;2024-03-02T15:33:49;17.00;46.40
210;DHT22;90;48.810;9.120;2024-03-02T15:36:16;16.50;46.40
210;DHT22;90;48.810;9.120;2024-03-02T15:38:44;16.30;47.40
210;DHT22;90;48.810;9.120;2024-03-02T15:41:11;16.10;47.80
210;DHT22;90;48.810;9.120;2024-03-02T15:44:06;16.00;47.80
210;DHT22;90;48.810;9.120;2024-03-02T15:49:51;15.70;48.50
210;DHT22;90;48.810;9.120;2024-03-02T15:52:32;15.50;48.90
210;DHT22;90;48.810;9.120;2024-03-02T15:55:08;15.30;49.70
210;DHT22;90;48.810;9.120;2024-03-02T15:57:44;15.20;49.70
210;DHT22;90;48.810;9.120;2024-03-02T16:00:14;15.10;50.20
210;DHT22;90;48.810;9.120;2024-03-02T16:02:44;14.90;50.30
210;DHT22;90;48.810;9.120;2024-03-02T16:05:11;14.80;50.50
210;DHT22;90;48.810;9.120;2024-03-02T16:07:38;14.70;50.70
210;DHT22;90;48.810;9.120;2024-03-02T16:10:09;14.60;51.20
210;DHT22;90;48.810;9.120;2024-03-02T16:12:37;14.60;51.80
210;DHT22;90;48.810;9.120;2024-03-02T16:15:07;14.50;52.00
210;DHT22;90;48.810;9.120;2024-03-02T16:21:14;14.30;53.00
210;DHT22;90;48.810;9.120;2024-03-02T16:24:01;14.20;53.60
210;DHT22;90;48.810;9.120;2024-03-02T16:26:53;14.20;54.30
210;DHT22;90;48.810;9.120;2024-03-02T16:29:30;14.20;54.60
210;DHT22;90;48.810;9.120;2024-03-02T16:31:57;14.10;54.90
210;DHT22;90;48.810;9.120;2024-03-02T16:34:38;14.00;55.20
210;DHT22;90;48.810;9.120;2024-03-02T16:37:32;13.90;55.50
210;DHT22;90;48.810;9.120;2024-03-02T16:40:13;13.80;55.80
210;DHT22;90;48.810;9.120;2024-03-02T16:43:04;13.70;56.30
210;DHT22;90;48.810;9.120;2024-03-02T16:45:34;13.60;57.10
210;DHT22;90;48.810;9.120;2024-03-02T16:48:05;13.60;57.50
210;DHT22;90;48.810;9.120;2024-03-02T16:50:52;13.60;57.80
210;DHT22;90;48.810;9.120;2024-03-02T16:53:49;13.50;58.30
210;DHT22;90;48.810;9.120;2024-03-02T16:59:27;13.30;59.30
210;DHT22;90;48.810;9.120;2024-03-02T17:02:16;13.30;59.60
210;DHT22;90;48.810;9.120;2024-03-02T17:11:35;13.20;60.70
210;DHT22;90;48.810;9.120;2024-03-02T17:14:30;13.10;61.70
210;DHT22;90;48.810;9.120;2024-03-02T17:16:57;13.20;64.50
210;DHT22;90;48.810;9.120;2024-03-02T17:19:23;13.70;69.80
210;DHT22;90;48.810;9.120;2024-03-02T17:22:25;14.00;71.80
210;DHT22;90;48.810;9.120;2024-03-02T17:25:21;14.10;64.20
210;DHT22;90;48.810;9.120;2024-03-02T17:27:59;14.00;62.80